Time;durP1;ratioP1;P1;durP2;ratioP2;P2;SDS_P1;SDS_P2;PMS_P1;PMS_P2;Temp;Humidity;BMP_temperature;BMP_pressure;BME280_temperature;BME280_humidity;BME280_pressure;Samples;Min_cycle;Max_cycle;Signal;HPM_P1;HPM_P2
2023/05/08 00:00:43;;;;;;;16.90;7.10;;;;;;;5.16;72.90;100086.61;104214;1276;106911;-75
2023/05/08 00:03:17;;;;;;;;;;;;;;;5.14;72.92;100088.77;104268;1270;98005;-75
2023/05/08 00:05:44;;;;;;;12.10;6.20;;;;;;;5.12;72.89;100088.67;104324;1268;97935;-75
2023/05/08 00:08:13;;;;;;;16.80;7.00;;;;;;;5.11;72.94;100087.11;104375;1270;110423;-75
2023/05/08 00:10:41;;;;;;;15.80;6.40;;;;;;;5.11;72.84;100089.23;104267;1268;97947;-75
2023/05/08 00:13:09;;;;;;;17.30;6.50;;;;;;;5.12;72.90;100079.01;104255;1273;106973;-75
2023/05/08 00:15:37;;;;;;;13.70;6.30;;;;;;;5.12;72.87;100086.04;104315;1270;99177;-75
2023/05/08 00:18:04;;;;;;;11.90;6.20;;;;;;;5.12;72.96;100086.20;104267;1267;99173;-76
2023/05/08 00:20:33;;;;;;;16.50;7.10;;;;;;;5.14;72.88;100086.51;104294;1269;110234;-75
2023/05/08 00:23:01;;;;;;;15.20;5.70;;;;;;;5.15;72.89;100080.83;104348;1267;97958;-75
2023/05/08 00:25:30;;;;;;;16.10;6.70;;;;;;;5.13;72.82;100081.23;104250;1267;107500;-75
2023/05/08 00:27:59;;;;;;;12.30;6.10;;;;;;;5.12;72.87;100083.94;104526;1264;97949;-75
2023/05/08 00:30:27;;;;;;;14.10;6.30;;;;;;;5.09;72.91;100082.98;104354;1270;97951;-75
2023/05/08 00:32:55;;;;;;;14.00;6.00;;;;;;;5.08;72.90;100089.88;104329;1267;111221;-75
2023/05/08 00:35:22;;;;;;;19.80;6.90;;;;;;;5.07;72.79;100083.22;104299;1267;97949;-75
2023/05/08 00:37:52;;;;;;;14.70;6.50;;;;;;;5.07;72.88;100088.14;104312;1267;106755;-75
2023/05/08 00:40:20;;;;;;;12.30;5.90;;;;;;;5.06;72.77;100086.94;104305;1268;99253;-75
2023/05/08 00:42:48;;;;;;;15.50;6.40;;;;;;;5.04;72.83;100087.88;104314;1264;97900;-75
2023/05/08 00:45:16;;;;;;;14.50;6.30;;;;;;;5.06;72.83;100089.74;104285;1268;110714;-75
2023/05/08 00:47:44;;;;;;;14.30;6.30;;;;;;;5.05;72.87;100091.20;104381;1263;98003;-75
2023/05/08 00:50:12;;;;;;;17.30;6.20;;;;;;;5.04;72.86;100092.44;104279;1267;107862;-75
2023/05/08 00:52:41;;;;;;;17.10;6.70;;;;;;;5.03;72.92;100092.48;104334;1267;97995;-75
2023/05/08 00:55:09;;;;;;;13.10;5.90;;;;;;;5.01;72.86;100094.65;104319;1270;98025;-75
2023/05/08 00:57:37;;;;;;;13.90;5.80;;;;;;;5.00;72.95;100095.05;104261;1266;112555;-76
2023/05/08 01:00:06;;;;;;;12.60;5.90;;;;;;;4.97;72.88;100096.03;104291;1267;97935;-75
2023/05/08 01:02:34;;;;;;;13.60;5.70;;;;;;;4.94;72.97;100101.40;104350;1269;108899;-75
2023/05/08 01:05:03;;;;;;;16.40;6.20;;;;;;;4.94;72.98;100104.73;104326;1267;97938;-75
2023/05/08 01:07:32;;;;;;;12.60;5.60;;;;;;;4.94;72.92;100108.77;104362;1267;99310;-75
2023/05/08 01:10:00;;;;;;;12.70;5.70;;;;;;;4.92;72.92;100108.66;104347;1276;110276;-75
2023/05/08 01:12:28;;;;;;;14.90;6.90;;;;;;;4.92;72.86;100105.84;104309;1268;97950;-76
2023/05/08 01:15:16;;;;;;;16.50;6.20;;;;;;;4.91;72.95;100107.98;104269;1264;108727;-74
2023/05/08 01:18:00;;;;;;;14.90;5.60;;;;;;;4.92;72.95;100110.08;104342;1276;98060;-74
2023/05/08 01:21:09;;;;;;;13.60;6.30;;;;;;;4.94;72.93;100114.39;104267;1267;97973;-74
2023/05/08 01:24:14;;;;;;;15.50;6.00;;;;;;;4.94;72.97;100118.27;104266;1267;112140;-74
2023/05/08 01:26:48;;;;;;;16.10;6.20;;;;;;;4.95;73.03;100118.23;104304;1270;97920;-74
2023/05/08 01:29:42;;;;;;;13.50;6.10;;;;;;;4.97;72.99;100128.03;104293;1268;108807;-75
2023/05/08 01:32:14;;;;;;;9.80;4.90;;;;;;;4.96;73.12;100126.83;104366;1264;98638;-74
2023/05/08 01:34:55;;;;;;;16.00;6.00;;;;;;;4.92;73.04;100131.32;104354;1277;97967;-74
2023/05/08 01:37:36;;;;;;;13.50;5.60;;;;;;;4.93;72.99;100135.71;104280;1271;111217;-75
2023/05/08 01:40:09;;;;;;;15.00;5.70;;;;;;;4.96;73.00;100136.84;104292;1264;97990;-75
2023/05/08 01:43:02;;;;;;;12.70;5.60;;;;;;;4.97;72.94;100136.98;104290;1269;106749;-75
2023/05/08 01:45:44;;;;;;;12.10;5.20;;;;;;;4.98;73.04;100140.11;104288;1268;98170;-75
2023/05/08 01:48:22;;;;;;;14.70;5.80;;;;;;;4.96;72.95;100139.84;104290;1269;97958;-76
2023/05/08 01:51:06;;;;;;;13.70;5.80;;;;;;;4.93;73.03;100143.25;104277;1272;112577;-75
2023/05/08 01:53:46;;;;;;;12.80;5.40;;;;;;;4.93;73.10;100138.85;104290;1272;98069;-75
2023/05/08 01:56:21;;;;;;;12.90;6.00;;;;;;;4.94;73.00;100138.31;104254;1276;108977;-76
2023/05/08 01:58:55;;;;;;;14.70;5.90;;;;;;;4.93;73.11;100135.35;104456;1265;99285;-75
2023/05/08 02:01:28;;;;;;;15.70;6.20;;;;;;;4.93;73.02;100140.77;104298;1269;98026;-75
2023/05/08 02:03:57;;;;;;;14.50;5.50;;;;;;;4.93;72.91;100136.23;104565;1268;113770;-75
2023/05/08 02:06:27;;;;;;;11.70;5.20;;;;;;;4.93;72.97;100137.46;104328;1268;99326;-75
2023/05/08 02:08:57;;;;;;;16.00;6.00;;;;;;;4.90;72.94;100135.24;104336;1264;107976;-76
2023/05/08 02:11:27;;;;;;;13.30;5.10;;;;;;;4.89;72.87;100133.20;104377;1263;98083;-75
2023/05/08 02:13:59;;;;;;;11.70;5.20;;;;;;;4.89;73.08;100136.68;104357;1273;97986;-75
2023/05/08 02:16:29;;;;;;;13.80;6.30;;;;;;;4.90;72.93;100142.66;104314;1270;110835;-75
2023/05/08 02:19:00;;;;;;;12.70;5.60;;;;;;;4.88;72.86;100137.42;104343;1268;98077;-75
2023/05/08 02:21:30;;;;;;;17.20;5.30;;;;;;;4.84;73.03;100137.58;104320;1269;107995;-77
2023/05/08 02:23:59;;;;;;;14.80;6.10;;;;;;;4.82;72.94;100139.92;104339;1264;97973;-75
2023/05/08 02:26:28;;;;;;;17.00;5.90;;;;;;;4.80;72.96;100137.86;104275;1264;97945;-75
2023/05/08 02:28:56;;;;;;;13.00;5.50;;;;;;;4.80;72.92;100141.03;104269;1264;111289;-75
2023/05/08 02:31:26;;;;;;;11.70;5.80;;;;;;;4.80;72.93;100149.30;104388;1264;97963;-75
2023/05/08 02:33:57;;;;;;;14.50;5.30;;;;;;;4.80;72.99;100152.48;104369;1264;108966;-76
2023/05/08 02:36:27;;;;;;;15.00;6.50;;;;;;;4.78;72.85;100153.40;104491;1264;98243;-75
2023/05/08 02:38:57;;;;;;;10.60;5.40;;;;;;;4.75;72.90;100158.76;104323;1268;97978;-75
2023/05/08 02:41:31;;;;;;;14.10;5.60;;;;;;;4.75;72.95;100155.77;104301;1264;110824;-75
2023/05/08 02:43:59;;;;;;;11.70;5.10;;;;;;;4.74;72.91;100159.66;104330;1264;97954;-75
2023/05/08 02:46:56;;;;;;;11.60;5.50;;;;;;;4.71;73.01;100159.77;104301;1267;108721;-76
2023/05/08 02:49:42;;;;;;;13.20;5.60;;;;;;;4.68;73.00;100158.98;104299;1268;98033;-75
2023/05/08 02:52:21;;;;;;;12.00;5.00;;;;;;;4.67;73.11;100157.80;104258;1268;97992;-75
2023/05/08 02:55:03;;;;;;;13.00;5.90;;;;;;;4.67;72.91;100158.66;104287;1267;111166;-76
2023/05/08 02:57:40;;;;;;;14.00;5.40;;;;;;;4.64;73.01;100161.93;104245;1269;98807;-75
2023/05/08 03:00:17;;;;;;;16.90;5.60;;;;;;;4.63;72.88;100162.48;104307;1270;107408;-77
2023/05/08 03:03:09;;;;;;;11.60;5.50;;;;;;;4.61;72.89;100160.77;104283;1267;97986;-75
2023/05/08 03:05:41;;;;;;;15.60;5.50;;;;;;;4.64;72.91;100162.62;104322;1267;97885;-76
2023/05/08 03:08:22;;;;;;;11.60;5.00;;;;;;;4.64;72.92;100165.96;104257;1267;112355;-76
2023/05/08 03:10:54;;;;;;;12.40;5.40;;;;;;;4.62;72.91;100165.66;104297;1267;99308;-75
2023/05/08 03:13:23;;;;;;;13.60;5.10;;;;;;;4.62;72.95;100167.95;104371;1270;109600;-75
2023/05/08 03:15:59;;;;;;;12.50;5.40;;;;;;;4.60;72.93;100164.33;104326;1267;98018;-75
2023/05/08 03:18:33;;;;;;;10.90;5.10;;;;;;;4.61;73.07;100167.96;104344;1264;98067;-75
2023/05/08 03:21:01;;;;;;;13.60;5.10;;;;;;;4.63;72.90;100165.82;104351;1267;110407;-76
2023/05/08 03:23:32;;;;;;;13.10;5.70;;;;;;;4.63;72.98;100165.11;104286;1268;99183;-76
2023/05/08 03:26:03;;;;;;;11.10;5.00;;;;;;;4.66;72.98;100170.30;104360;1267;108654;-76
2023/05/08 03:28:35;;;;;;;13.10;5.40;;;;;;;4.66;72.84;100170.30;104351;1264;97980;-77
2023/05/08 03:31:05;;;;;;;11.20;5.40;;;;;;;4.65;72.99;100171.39;104284;1267;97996;-76
2023/05/08 03:33:37;;;;;;;14.60;5.50;;;;;;;4.64;72.98;100171.59;104420;1265;110967;-76
2023/05/08 03:36:05;;;;;;;11.00;5.40;;;;;;;4.62;72.92;100172.33;104500;1267;98042;-76
2023/05/08 03:38:34;;;;;;;12.80;5.30;;;;;;;4.59;73.04;100169.09;104355;1271;107826;-76
2023/05/08 03:41:03;;;;;;;14.00;5.70;;;;;;;4.60;73.01;100170.11;104582;1267;98870;-76
2023/05/08 03:43:31;;;;;;;12.50;5.10;;;;;;;4.62;73.04;100178.14;104580;1264;97882;-76
2023/05/08 03:45:59;;;;;;;10.50;4.80;;;;;;;4.62;73.04;100175.31;104815;1264;110333;-77
2023/05/08 03:48:28;;;;;;;11.80;5.30;;;;;;;4.64;73.15;100178.09;107969;1264;95705;-77
2023/05/08 03:50:57;;;;;;;13.90;5.20;;;;;;;4.64;73.09;100175.96;107935;1264;107903;-78
2023/05/08 03:53:25;;;;;;;14.40;5.70;;;;;;;4.68;73.03;100174.99;107827;1264;95768;-78
2023/05/08 03:55:53;;;;;;;12.00;4.70;;;;;;;4.70;73.06;100176.15;107094;1267;97975;-77
2023/05/08 03:58:49;;;;;;;11.40;5.20;;;;;;;4.73;73.05;100178.50;106055;1264;110641;-77
2023/05/08 04:01:17;;;;;;;11.90;5.10;;;;;;;4.76;73.09;100177.71;104505;1268;99295;-77
2023/05/08 04:04:05;;;;;;;14.60;5.80;;;;;;;4.80;72.99;100181.12;104334;1267;106802;-77
2023/05/08 04:06:45;;;;;;;11.20;5.30;;;;;;;4.83;73.03;100184.71;104289;1270;97964;-77
2023/05/08 04:09:27;;;;;;;13.50;4.90;;;;;;;4.87;73.06;100189.70;104308;1264;98051;-77
2023/05/08 04:11:55;;;;;;;12.40;5.10;;;;;;;4.87;73.06;100192.31;104288;1269;112538;-77
2023/05/08 04:14:26;;;;;;;13.90;5.40;;;;;;;4.86;73.08;100196.75;104349;1265;98594;-78
2023/05/08 04:17:01;;;;;;;12.10;5.10;;;;;;;4.84;73.16;100196.98;104329;1268;107663;-77
2023/05/08 04:19:37;;;;;;;11.60;4.90;;;;;;;4.86;73.08;100200.09;104303;1269;98728;-77
2023/05/08 04:22:07;;;;;;;11.50;4.90;;;;;;;4.86;73.08;100197.98;104335;1267;99291;-77
2023/05/08 04:24:40;;;;;;;12.40;5.10;;;;;;;4.86;73.20;100201.49;104314;1268;111646;-75
2023/05/08 04:27:11;;;;;;;13.90;5.50;;;;;;;4.88;73.15;100206.88;104270;1270;98518;-79
2023/05/08 04:29:39;;;;;;;11.70;5.70;;;;;;;4.89;73.22;100204.73;104259;1270;108419;-79
2023/05/08 04:32:07;;;;;;;12.50;4.90;;;;;;;4.91;73.21;100205.89;104334;1270;98055;-79
2023/05/08 04:34:36;;;;;;;10.90;4.80;;;;;;;4.92;73.07;100213.59;104386;1265;98002;-79
2023/05/08 04:37:06;;;;;;;10.00;4.70;;;;;;;4.94;73.15;100213.36;104488;1270;111887;-81
2023/05/08 04:39:35;;;;;;;12.20;5.00;;;;;;;4.98;73.15;100214.48;104424;1267;98284;-80
2023/05/08 04:42:03;;;;;;;11.90;4.90;;;;;;;5.01;73.17;100217.89;104388;1270;108886;-76
2023/05/08 04:44:31;;;;;;;9.50;4.60;;;;;;;5.05;73.14;100216.38;104143;1270;97927;-77
2023/05/08 04:47:01;;;;;;;12.30;4.40;;;;;;;5.09;73.09;100218.16;104293;1265;97879;-76
2023/05/08 04:49:29;;;;;;;13.90;4.80;;;;;;;5.12;73.03;100222.46;104173;1265;111556;-77
2023/05/08 04:51:56;;;;;;;12.70;4.90;;;;;;;5.16;73.12;100223.93;104305;1270;98041;-79
2023/05/08 04:54:24;;;;;;;9.50;4.20;;;;;;;5.23;73.26;100227.94;104253;1270;108786;-79
2023/05/08 04:56:52;;;;;;;10.20;4.10;;;;;;;5.27;72.99;100229.21;104265;1268;97986;-79
2023/05/08 04:59:20;;;;;;;10.90;4.50;;;;;;;5.30;73.07;100224.39;104578;1269;97956;-80
2023/05/08 05:01:47;;;;;;;10.40;4.50;;;;;;;5.29;72.94;100229.69;104525;1265;112211;-80
2023/05/08 05:04:16;;;;;;;13.40;4.60;;;;;;;5.27;73.05;100231.86;105211;1265;97904;-80
2023/05/08 05:06:43;;;;;;;10.50;4.50;;;;;;;5.30;73.11;100229.30;106196;1264;106462;-80
2023/05/08 05:09:12;;;;;;;8.30;4.20;;;;;;;5.35;72.99;100235.11;104512;1268;97996;-80
2023/05/08 05:11:40;;;;;;;11.60;4.40;;;;;;;5.42;73.10;100235.23;104535;1264;97967;-80
2023/05/08 05:14:07;;;;;;;7.70;3.90;;;;;;;5.46;73.02;100237.23;104439;1268;110359;-80
2023/05/08 05:16:35;;;;;;;9.60;4.10;;;;;;;5.47;73.02;100237.91;104406;1265;97924;-80
2023/05/08 05:19:03;;;;;;;13.40;5.00;;;;;;;5.50;72.98;100236.57;105042;1265;108146;-80
2023/05/08 05:21:31;;;;;;;13.10;5.20;;;;;;;5.58;73.03;100244.05;104374;1265;97986;-81
2023/05/08 05:23:59;;;;;;;16.60;5.50;;;;;;;5.65;73.04;100244.70;104416;1268;99189;-80
2023/05/08 05:26:27;;;;;;;11.70;4.80;;;;;;;5.68;73.00;100250.05;104387;1268;112176;-80
2023/05/08 05:28:55;;;;;;;12.20;4.90;;;;;;;5.69;73.00;100253.00;104291;1267;98088;-80
2023/05/08 05:31:23;;;;;;;11.10;4.90;;;;;;;5.72;73.17;100252.73;104285;1268;107780;-80
2023/05/08 05:33:51;;;;;;;11.60;5.20;;;;;;;5.75;72.93;100259.14;104390;1271;98947;-80
2023/05/08 05:36:19;;;;;;;9.70;4.90;;;;;;;5.72;72.84;100258.19;104379;1264;97931;-80
2023/05/08 05:38:50;;;;;;;11.90;5.00;;;;;;;5.70;72.73;100263.73;104280;1264;111201;-80
2023/05/08 05:41:18;;;;;;;15.30;5.70;;;;;;;5.72;72.68;100260.67;104370;1271;97974;-84
2023/05/08 05:43:46;;;;;;;12.10;5.30;;;;;;;5.74;72.80;100263.23;104443;1267;107122;-82
2023/05/08 05:46:13;;;;;;;11.00;5.00;;;;;;;5.79;72.73;100270.28;104438;1267;97970;-82
2023/05/08 05:48:41;;;;;;;10.90;5.00;;;;;;;5.85;72.68;100269.75;104455;1264;97945;-82
2023/05/08 05:51:09;;;;;;;18.10;6.10;;;;;;;5.92;72.94;100270.38;104417;1267;110367;-81
2023/05/08 05:53:37;;;;;;;12.10;5.70;;;;;;;5.96;72.81;100273.73;104429;1268;98784;-82
2023/05/08 05:56:05;;;;;;;16.30;6.10;;;;;;;5.94;72.64;100273.11;104445;1264;108547;-81
2023/05/08 05:58:33;;;;;;;15.20;6.00;;;;;;;5.99;72.75;100274.89;104458;1268;97960;-80
2023/05/08 06:01:01;;;;;;;16.10;6.60;;;;;;;6.15;72.78;100278.42;104437;1265;98071;-81
2023/05/08 06:03:29;;;;;;;13.10;5.60;;;;;;;6.39;72.82;100277.77;104497;1264;112429;-82
2023/05/08 06:05:57;;;;;;;13.00;5.70;;;;;;;6.63;73.04;100273.35;104427;1281;98078;-81
2023/05/08 06:08:26;;;;;;;11.20;5.10;;;;;;;6.88;72.77;100273.52;104426;1267;108844;-82
2023/05/08 06:10:54;;;;;;;11.30;5.10;;;;;;;6.97;72.68;100273.50;104421;1264;97967;-83
2023/05/08 06:13:22;;;;;;;11.10;4.90;;;;;;;6.95;72.49;100275.52;104436;1267;98062;-82
2023/05/08 06:15:50;;;;;;;12.40;5.40;;;;;;;6.94;72.61;100276.24;104440;1264;111298;-82
2023/05/08 06:18:17;;;;;;;11.80;4.30;;;;;;;6.96;72.42;100279.71;104479;1267;97971;-86
2023/05/08 06:20:45;;;;;;;9.90;4.20;;;;;;;6.97;72.17;100277.20;104436;1264;108851;-83
2023/05/08 06:23:14;;;;;;;10.50;3.80;;;;;;;7.00;72.27;100276.40;104474;1268;97983;-87
2023/05/08 06:25:41;;;;;;;7.50;4.10;;;;;;;6.99;72.21;100275.88;104526;1268;97940;-84
2023/05/08 06:28:09;;;;;;;8.80;4.00;;;;;;;7.04;72.18;100274.33;104554;1268;110297;-84
2023/05/08 06:30:37;;;;;;;11.20;4.40;;;;;;;7.04;72.14;100279.41;104451;1268;97952;-84
2023/05/08 06:33:05;;;;;;;10.40;4.30;;;;;;;7.06;71.93;100278.64;104475;1268;108894;-87
2023/05/08 06:35:32;;;;;;;9.70;4.40;;;;;;;7.10;72.09;100282.52;104423;1264;98927;-85
2023/05/08 06:38:01;;;;;;;8.00;3.90;;;;;;;7.16;72.05;100281.77;104491;1264;97887;-82
2023/05/08 06:40:28;;;;;;;12.60;4.10;;;;;;;7.25;72.07;100288.65;104291;1284;110749;-82
2023/05/08 06:42:56;;;;;;;11.10;4.10;;;;;;;7.31;72.13;100286.67;104339;1267;98617;-85
2023/05/08 06:45:24;;;;;;;8.20;3.90;;;;;;;7.36;71.96;100290.34;104501;1265;107684;-82
2023/05/08 06:47:52;;;;;;;9.80;3.80;;;;;;;7.44;71.94;100291.63;104350;1271;97872;-87
2023/05/08 06:50:20;;;;;;;8.90;4.00;;;;;;;7.58;72.14;100291.92;104446;1268;98015;-87
2023/05/08 06:52:48;;;;;;;9.80;3.60;;;;;;;7.67;71.94;100293.17;104411;1267;111533;-87
2023/05/08 06:55:16;;;;;;;8.70;4.00;;;;;;;7.75;71.88;100289.85;104451;1264;98641;-86
2023/05/08 06:57:44;;;;;;;10.40;3.70;;;;;;;7.92;71.88;100287.91;104454;1269;106789;-87
2023/05/08 07:00:12;;;;;;;10.10;3.90;;;;;;;8.12;72.10;100286.69;104451;1267;97960;-87
2023/05/08 07:02:39;;;;;;;10.30;3.90;;;;;;;8.29;71.63;100293.75;104404;1268;97990;-86
2023/05/08 07:05:08;;;;;;;6.90;3.50;;;;;;;8.36;71.60;100296.46;104591;1265;110758;-85
2023/05/08 07:07:36;;;;;;;7.30;3.60;;;;;;;8.39;71.09;100299.48;104371;1268;98083;-85
2023/05/08 07:10:04;;;;;;;5.60;3.30;;;;;;;8.50;71.27;100297.80;104432;1280;108705;-86
2023/05/08 07:12:34;;;;;;;7.60;3.40;;;;;;;8.57;71.37;100290.47;104432;1266;98051;-86
2023/05/08 07:15:02;;;;;;;7.10;3.40;;;;;;;8.61;71.24;100297.14;104428;1268;99285;-87
2023/05/08 07:17:44;;;;;;;10.40;3.90;;;;;;;8.66;71.23;100294.63;104421;1267;110757;-86
2023/05/08 07:20:12;;;;;;;12.10;3.80;;;;;;;8.83;71.32;100300.25;104487;1266;99390;-85
2023/05/08 07:22:41;;;;;;;11.10;3.40;;;;;;;8.94;71.30;100299.92;104446;1267;106821;-86
2023/05/08 07:25:09;;;;;;;4.90;2.90;;;;;;;8.96;70.84;100299.31;104267;1265;97948;-85
2023/05/08 07:27:37;;;;;;;8.00;3.50;;;;;;;8.99;71.01;100298.83;104350;1265;97959;-85
2023/05/08 07:30:05;;;;;;;6.00;3.20;;;;;;;9.01;70.67;100303.84;104271;1267;110509;-85
2023/05/08 07:32:33;;;;;;;6.10;3.40;;;;;;;8.99;70.39;100307.29;104376;1267;97981;-84
2023/05/08 07:35:02;;;;;;;8.40;3.40;;;;;;;9.10;70.34;100310.72;104467;1267;107894;-88
2023/05/08 07:37:31;;;;;;;8.40;3.50;;;;;;;9.18;70.13;100312.08;104451;1269;97968;-85
2023/05/08 07:39:59;;;;;;;9.10;3.40;;;;;;;9.26;70.04;100303.05;104459;1278;98074;-86
2023/05/08 07:42:27;;;;;;;7.80;3.60;;;;;;;9.36;70.27;100299.38;104395;1264;110904;-85
2023/05/08 07:44:55;;;;;;;5.20;2.90;;;;;;;9.53;70.35;100301.58;104424;1267;97948;-85
2023/05/08 07:47:23;;;;;;;8.30;3.70;;;;;;;9.77;70.27;100297.55;104417;1264;108365;-84
2023/05/08 07:49:52;;;;;;;10.50;3.70;;;;;;;9.89;69.96;100296.77;104443;1268;98053;-87
2023/05/08 07:52:21;;;;;;;6.90;3.50;;;;;;;9.86;69.46;100294.27;104506;1271;98034;-83
2023/05/08 07:54:48;;;;;;;8.60;3.70;;;;;;;9.72;69.54;100300.15;104305;1270;112427;-84
2023/05/08 07:57:16;;;;;;;6.60;3.10;;;;;;;9.75;69.68;100296.79;104491;1267;97936;-87
2023/05/08 07:59:44;;;;;;;8.20;3.40;;;;;;;9.82;69.62;100297.65;104466;1268;107608;-87
2023/05/08 08:02:11;;;;;;;7.20;3.40;;;;;;;9.87;69.64;100297.44;104525;1275;97976;-83
2023/05/08 08:04:40;;;;;;;6.60;3.40;;;;;;;9.82;69.29;100293.07;104658;1268;98549;-85
2023/05/08 08:07:08;;;;;;;10.30;3.60;;;;;;;9.81;69.25;100297.34;104659;1263;110879;-84
2023/05/08 08:09:36;;;;;;;7.90;3.70;;;;;;;9.79;68.95;100293.73;104675;1265;98176;-87
2023/05/08 08:12:04;;;;;;;7.70;3.50;;;;;;;9.77;68.96;100301.83;104774;1267;108824;-87
2023/05/08 08:14:32;;;;;;;5.80;3.40;;;;;;;9.69;68.38;100297.95;104602;1268;97973;-83
2023/05/08 08:17:00;;;;;;;6.60;3.60;;;;;;;9.73;69.08;100298.14;104631;1263;97872;-84
2023/05/08 08:19:31;;;;;;;6.10;3.40;;;;;;;9.78;68.51;100303.89;104642;1265;111289;-85
2023/05/08 08:21:59;;;;;;;8.10;3.50;;;;;;;9.75;68.52;100301.76;104600;1267;99284;-81
2023/05/08 08:24:28;;;;;;;7.50;3.20;;;;;;;9.79;68.36;100303.65;104609;1274;108931;-82
2023/05/08 08:26:56;;;;;;;5.80;3.10;;;;;;;9.86;68.17;100297.16;104645;1264;97977;-82
2023/05/08 08:29:23;;;;;;;7.70;3.50;;;;;;;9.91;68.35;100302.53;104382;1266;97985;-83
2023/05/08 08:31:51;;;;;;;6.70;3.60;;;;;;;9.98;68.01;100298.31;104414;1271;111283;-82
2023/05/08 08:34:20;;;;;;;11.10;3.60;;;;;;;10.00;68.25;100307.45;104453;1268;97953;-82
2023/05/08 08:36:48;;;;;;;7.10;3.30;;;;;;;9.94;68.15;100303.30;104452;1270;107611;-82
2023/05/08 08:39:15;;;;;;;8.90;3.60;;;;;;;9.93;67.92;100300.52;104465;1268;99287;-82
2023/05/08 08:41:43;;;;;;;9.10;3.80;;;;;;;9.97;67.85;100301.04;104427;1271;97901;-81
2023/05/08 08:44:11;;;;;;;7.70;3.20;;;;;;;10.12;67.65;100292.99;104407;1265;110586;-82
2023/05/08 08:46:50;;;;;;;6.60;3.40;;;;;;;10.35;67.56;100290.95;104434;1265;97998;-81
2023/05/08 08:49:24;;;;;;;7.00;3.60;;;;;;;10.53;67.25;100293.94;104432;1268;107695;-82
2023/05/08 08:51:58;;;;;;;6.40;3.60;;;;;;;10.49;67.29;100296.10;104496;1265;97969;-84
2023/05/08 08:54:28;;;;;;;6.40;3.30;;;;;;;10.37;67.14;100297.90;104777;1269;97979;-83
2023/05/08 08:57:00;;;;;;;7.00;3.20;;;;;;;10.28;66.70;100299.95;104534;1265;111434;-82
2023/05/08 08:59:29;;;;;;;6.80;3.20;;;;;;;10.33;66.77;100295.64;104847;1268;97939;-93
2023/05/08 09:02:03;;;;;;;10.70;4.30;;;;;;;10.44;66.32;100290.16;104674;1268;107651;-89
2023/05/08 09:04:31;;;;;;;8.30;3.60;;;;;;;10.59;66.45;100290.23;105892;1264;99204;-94
2023/05/08 09:07:04;;;;;;;8.40;3.50;;;;;;;10.75;66.77;100283.88;105227;1267;98043;-92
2023/05/08 09:09:34;;;;;;;7.80;3.50;;;;;;;10.93;66.59;100286.64;105055;1268;110990;-93
2023/05/08 09:12:03;;;;;;;5.50;3.00;;;;;;;10.95;66.12;100287.97;104700;1271;97942;-88
2023/05/08 09:14:31;;;;;;;8.00;3.80;;;;;;;10.94;66.08;100289.97;104568;1266;107677;-89
2023/05/08 09:16:59;;;;;;;6.10;3.20;;;;;;;10.95;66.28;100296.87;104634;1265;97974;-90
2023/05/08 09:19:27;;;;;;;9.80;3.60;;;;;;;11.06;66.47;100304.80;104484;1264;97925;-87
2023/05/08 09:21:59;;;;;;;8.20;3.40;;;;;;;11.11;65.94;100304.31;104594;1268;110713;-87
2023/05/08 09:24:58;;;;;;;6.60;3.50;;;;;;;11.23;65.69;100304.69;104692;1268;99167;-86
2023/05/08 09:27:27;;;;;;;8.10;3.20;;;;;;;11.23;65.50;100305.95;104566;1276;107684;-88
2023/05/08 09:30:04;;;;;;;6.30;3.10;;;;;;;11.14;65.01;100303.23;104637;1271;97874;-88
2023/05/08 09:32:34;;;;;;;9.40;3.20;;;;;;;11.29;65.56;100301.40;104589;1270;97965;-89
2023/05/08 09:35:03;;;;;;;10.00;3.80;;;;;;;11.39;65.10;100300.11;104620;1266;111221;-85
2023/05/08 09:37:32;;;;;;;9.00;3.60;;;;;;;11.40;65.03;100296.86;104662;1265;97927;-85
2023/05/08 09:40:11;;;;;;;8.40;3.50;;;;;;;11.26;64.97;100297.84;104614;1268;107252;-87
2023/05/08 09:42:40;;;;;;;5.90;2.90;;;;;;;11.08;64.63;100304.67;104637;1266;98012;-82
2023/05/08 09:45:08;;;;;;;7.90;3.50;;;;;;;10.98;64.22;100304.83;104635;1265;99208;-85
2023/05/08 09:47:38;;;;;;;7.10;3.30;;;;;;;10.98;64.65;100309.14;104762;1268;111351;-81
2023/05/08 09:50:10;;;;;;;5.70;3.10;;;;;;;11.00;64.60;100305.77;105149;1266;97974;-82
2023/05/08 09:52:45;;;;;;;8.10;3.40;;;;;;;11.00;64.60;100311.27;104388;1268;107050;-80
2023/05/08 09:55:13;;;;;;;9.90;3.70;;;;;;;10.95;64.07;100309.28;104606;1268;97962;-79
2023/05/08 09:57:56;;;;;;;7.30;3.70;;;;;;;10.79;64.26;100306.41;104491;1271;99133;-79
2023/05/08 10:00:27;;;;;;;6.60;3.20;;;;;;;10.69;64.17;100314.70;104481;1268;111342;-80
2023/05/08 10:03:00;;;;;;;6.20;3.10;;;;;;;10.68;64.14;100313.17;104514;1271;97968;-80
2023/05/08 10:05:30;;;;;;;8.50;3.30;;;;;;;10.75;63.94;100313.55;104467;1271;107263;-82
2023/05/08 10:08:19;;;;;;;5.80;2.80;;;;;;;10.90;64.00;100316.26;104523;1280;97944;-85
2023/05/08 10:10:48;;;;;;;6.30;3.00;;;;;;;11.06;63.78;100309.55;104594;1271;99378;-84
2023/05/08 10:13:16;;;;;;;9.30;4.20;;;;;;;11.10;63.10;100310.77;104601;1265;110452;-84
2023/05/08 10:15:44;;;;;;;5.80;2.90;;;;;;;10.96;63.30;100313.13;104570;1268;97956;-84
2023/05/08 10:18:16;;;;;;;6.80;3.60;;;;;;;10.84;63.37;100314.09;104545;1268;107828;-84
2023/05/08 10:20:47;;;;;;;8.60;3.20;;;;;;;10.81;63.55;100312.14;104464;1269;97932;-84
2023/05/08 10:23:17;;;;;;;6.70;3.20;;;;;;;10.77;63.25;100310.23;104728;1268;97974;-84
2023/05/08 10:25:51;;;;;;;6.10;3.50;;;;;;;10.74;63.29;100307.52;104742;1265;110439;-84
2023/05/08 10:28:31;;;;;;;7.20;3.40;;;;;;;10.69;62.59;100309.39;104684;1270;99187;-84
2023/05/08 10:31:01;;;;;;;7.40;3.20;;;;;;;10.62;63.22;100326.11;104543;1265;108050;-84
2023/05/08 10:33:31;;;;;;;6.90;3.60;;;;;;;10.52;62.99;100320.23;104701;1265;98050;-85
2023/05/08 10:36:00;;;;;;;8.60;3.10;;;;;;;10.51;62.99;100325.09;104701;1265;97957;-84
2023/05/08 10:38:29;;;;;;;7.40;2.90;;;;;;;10.55;63.05;100321.66;104680;1268;110541;-84
2023/05/08 10:41:01;;;;;;;8.10;2.90;;;;;;;10.64;63.00;100320.83;104477;1268;97934;-84
2023/05/08 10:43:32;;;;;;;6.70;3.40;;;;;;;10.77;62.58;100317.52;104450;1268;107111;-84
2023/05/08 10:46:08;;;;;;;7.70;3.90;;;;;;;10.94;62.78;100312.18;104667;1264;99023;-85
2023/05/08 10:48:53;;;;;;;7.10;3.10;;;;;;;11.12;62.53;100314.39;104519;1280;97980;-85
2023/05/08 10:51:37;;;;;;;7.90;3.70;;;;;;;11.20;62.29;100313.27;104567;1265;112199;-85
2023/05/08 10:54:14;;;;;;;6.50;3.30;;;;;;;11.32;62.40;100310.63;104547;1269;98479;-83
2023/05/08 10:56:42;;;;;;;5.30;2.90;;;;;;;11.40;62.46;100297.94;104501;1266;108630;-83
2023/05/08 10:59:20;;;;;;;6.00;2.90;;;;;;;11.57;62.67;100292.71;104528;1267;99205;-84
2023/05/08 11:01:49;;;;;;;8.50;3.30;;;;;;;11.78;62.88;100287.79;104524;1268;97974;-87
2023/05/08 11:04:21;;;;;;;7.90;3.60;;;;;;;11.87;62.40;100288.29;104489;1265;110367;-87
2023/05/08 11:06:52;;;;;;;5.20;3.30;;;;;;;11.88;62.15;100290.00;104593;1266;97958;-90
2023/05/08 11:09:29;;;;;;;6.90;3.40;;;;;;;11.94;62.37;100287.23;104497;1268;106167;-89
2023/05/08 11:12:18;;;;;;;7.50;3.30;;;;;;;11.97;62.34;100289.35;104801;1265;98466;-88
2023/05/08 11:15:03;;;;;;;8.50;4.00;;;;;;;11.85;62.38;100285.58;104719;1265;98887;-87
2023/05/08 11:17:32;;;;;;;4.60;2.80;;;;;;;11.71;62.30;100291.19;104654;1269;111626;-86
2023/05/08 11:20:05;;;;;;;7.50;3.20;;;;;;;11.54;61.76;100287.70;104634;1268;97937;-86
2023/05/08 11:22:35;;;;;;;6.50;3.20;;;;;;;11.54;61.83;100288.98;104574;1265;107852;-87
2023/05/08 11:25:07;;;;;;;5.90;2.80;;;;;;;11.58;61.88;100289.09;104672;1265;97894;-87
2023/05/08 11:27:47;;;;;;;7.00;3.30;;;;;;;11.53;61.70;100284.74;104783;1268;99168;-88
2023/05/08 11:30:45;;;;;;;8.00;3.00;;;;;;;11.36;61.34;100291.05;104705;1268;111308;-85
2023/05/08 11:33:15;;;;;;;6.80;3.20;;;;;;;11.02;60.53;100296.97;104442;1268;99388;-85
2023/05/08 11:35:56;;;;;;;9.30;3.50;;;;;;;10.88;60.96;100298.84;104751;1268;107252;-87